Decoded Metar for KGSH (GOSHEN in IN, USA) (IATA:GSH) | Meteo·Mobile Aviation Weather
aviador You're here:

KGSH Decoded Metar

GOSHEN in IN, USA
Report Time2018-09-21 09:53:00
UTC Time2018-09-21 10:38:02
Flight Rules vfr VFR
Wind210° at 13 Gusting to 22 kt
W.Decomp.*RWY 23: 12.5 kt HW 3.6 kt LCW
RWY 27: 7.3 kt HW 10.8 kt LCW
W.Rank210° ranks 1
Current wind is above 210° avg. (9.1)
Visibility9999 m
Phenomena:N/A
Clouds:N/A
Expected CloudBase > 2,000 ft AGL from Temp-Dew spread
CeilingNone
Temp24°C (ISA +11)
Dew Point19°C (74% RH)
AAT22.6°C
QNH1011 hPa
Density Alt2,421 ft
Elevation827 ft
Report Wrong Elevation
Raw Report
KGSH 210953Z AUTO 21013G22KT 10SM CLR 24/19 A2986 RMK AO2 SLP104
T02440194=

Extra information for KGSH:More info

Metar Taf Metar & Taf Last 4 Metars F.Rules Stats Wind Profile Meteogram Temp Stats Airport Information Weather charts Add Link Nearby VenuesMetar ALERT Operation Metar Decoded Social comments

AIRNAV info for KGSH